Time;durP1;ratioP1;P1;durP2;ratioP2;P2;SDS_P1;SDS_P2;PMS_P1;PMS_P2;Temp;Humidity;BMP_temperature;BMP_pressure;BME280_temperature;BME280_humidity;BME280_pressure;Samples;Min_cycle;Max_cycle;Signal;HPM_P1;HPM_P2
2020/12/27 00:01:45;;;;;;;48.85;28.20;;;;;;;1.71;74.25;101522.33;1789567;79;20946;-82
2020/12/27 00:04:14;;;;;;;44.90;26.62;;;;;;;1.67;73.95;101525.84;1783711;79;21463;-84
2020/12/27 00:06:44;;;;;;;45.78;26.93;;;;;;;1.64;73.74;101537.48;1789496;79;20958;-84
2020/12/27 00:09:12;;;;;;;47.85;27.17;;;;;;;1.60;73.59;101539.25;1789358;79;21543;-81
2020/12/27 00:11:40;;;;;;;46.65;29.45;;;;;;;1.58;73.53;101532.35;1788968;79;21108;-82
2020/12/27 00:14:10;;;;;;;47.93;29.65;;;;;;;1.53;73.68;101525.93;1788941;79;21009;-81
2020/12/27 00:16:38;;;;;;;63.90;31.48;;;;;;;1.48;73.97;101526.41;1789218;79;21613;-81
2020/12/27 00:19:06;;;;;;;55.28;31.87;;;;;;;1.47;73.97;101522.13;1789426;79;20926;-81
2020/12/27 00:21:34;;;;;;;62.90;28.62;;;;;;;1.46;74.14;101528.14;1790022;78;21041;-82
2020/12/27 00:24:02;;;;;;;56.58;28.87;;;;;;;1.49;74.16;101520.80;1792082;79;20952;-80
2020/12/27 00:26:30;;;;;;;55.92;30.90;;;;;;;1.51;73.97;101519.91;1792927;79;20990;-80
2020/12/27 00:28:58;;;;;;;56.10;30.95;;;;;;;1.51;73.96;101519.06;1792652;79;20942;-83
2020/12/27 00:31:26;;;;;;;57.43;29.72;;;;;;;1.52;74.00;101519.06;1792851;78;20962;-82
2020/12/27 00:33:54;;;;;;;59.98;31.68;;;;;;;1.52;73.98;101521.64;1792811;79;20932;-82
2020/12/27 00:36:22;;;;;;;51.33;29.30;;;;;;;1.52;73.80;101519.06;1792596;79;21045;-85
2020/12/27 00:38:50;;;;;;;47.33;26.00;;;;;;;1.51;73.74;101520.35;1792145;79;21006;-86
2020/12/27 00:41:25;;;;;;;53.83;27.25;;;;;;;1.49;73.82;101534.61;1791988;79;21041;-84
2020/12/27 00:43:53;;;;;;;44.73;25.80;;;;;;;1.48;73.78;101543.66;1791345;79;21427;-84
2020/12/27 00:46:22;;;;;;;43.87;24.75;;;;;;;1.48;73.77;101547.09;1790745;79;21014;-87
2020/12/27 00:48:50;;;;;;;41.75;22.75;;;;;;;1.49;73.65;101542.77;1789801;79;21124;-86
2020/12/27 00:51:25;;;;;;;44.67;25.57;;;;;;;1.45;73.70;101544.09;1763754;79;20942;-84
2020/12/27 00:53:54;;;;;;;53.23;26.45;;;;;;;1.43;73.75;101552.73;1789417;79;21017;-85
2020/12/27 00:56:22;;;;;;;47.20;26.30;;;;;;;1.41;73.73;101543.69;1717684;79;21751;-82
2020/12/27 00:58:55;;;;;;;49.85;25.52;;;;;;;1.39;73.84;101540.70;1787983;78;21395;-84
2020/12/27 01:01:27;;;;;;;43.58;22.25;;;;;;;1.39;73.79;101534.23;1788964;79;21045;-85
2020/12/27 01:03:56;;;;;;;38.45;17.73;;;;;;;1.38;73.94;101536.38;1788891;79;21479;-81
2020/12/27 01:06:25;;;;;;;30.00;15.43;;;;;;;1.39;74.02;101536.38;1788807;79;20949;-82
2020/12/27 01:08:55;;;;;;;33.23;19.48;;;;;;;1.39;74.13;101540.25;1788743;79;21744;-83
2020/12/27 01:11:23;;;;;;;31.40;19.00;;;;;;;1.39;74.07;101544.58;1788972;79;20942;-85
2020/12/27 01:13:52;;;;;;;31.27;19.25;;;;;;;1.39;74.02;101539.41;1788868;79;21005;-86
2020/12/27 01:16:21;;;;;;;34.90;20.60;;;;;;;1.39;73.97;101544.58;1788888;79;20921;-86
2020/12/27 01:18:50;;;;;;;32.10;18.82;;;;;;;1.31;73.99;101538.18;1788833;79;20939;-85
2020/12/27 01:21:28;;;;;;;33.65;18.12;;;;;;;1.24;74.19;101548.99;1815687;79;21141;-85
2020/12/27 01:23:56;;;;;;;25.62;16.48;;;;;;;1.21;74.30;101548.14;1788886;79;20954;-85
2020/12/27 01:26:33;;;;;;;30.20;16.75;;;;;;;1.17;74.50;101543.86;1788887;79;20950;-86
2020/12/27 01:29:03;;;;;;;30.60;17.55;;;;;;;1.12;74.74;101543.89;1789070;79;20986;-85
2020/12/27 01:31:32;;;;;;;28.57;16.75;;;;;;;1.10;74.90;101540.89;1789055;79;20990;-84
2020/12/27 01:34:03;;;;;;;26.23;15.55;;;;;;;1.09;75.13;101547.80;1788669;79;21482;-85
2020/12/27 01:36:34;;;;;;;29.45;16.35;;;;;;;1.11;75.02;101554.22;1788936;79;20951;-84
2020/12/27 01:39:06;;;;;;;24.45;14.73;;;;;;;1.14;74.96;101558.94;1788753;79;21497;-84
2020/12/27 01:41:36;;;;;;;25.92;15.30;;;;;;;1.14;74.97;101549.91;1788831;79;20946;-84
2020/12/27 01:44:10;;;;;;;34.45;16.93;;;;;;;1.14;75.00;101565.84;1788779;79;20977;-84
2020/12/27 01:46:45;;;;;;;30.27;19.00;;;;;;;1.11;75.23;101561.56;1788976;79;21184;-83
2020/12/27 01:49:15;;;;;;;31.85;18.87;;;;;;;1.14;75.18;101568.42;1788414;79;20942;-85
2020/12/27 01:51:43;;;;;;;44.05;22.27;;;;;;;1.12;75.02;101579.20;1789094;79;20938;-84
2020/12/27 01:54:14;;;;;;;50.63;26.80;;;;;;;1.11;75.02;101584.80;1788725;79;20919;-85
2020/12/27 01:56:58;;;;;;;57.78;31.25;;;;;;;1.16;75.10;101579.61;1876206;75;22685;-84
2020/12/27 01:59:28;;;;;;;51.30;27.55;;;;;;;1.09;75.18;101583.95;1788206;78;20989;-85
2020/12/27 02:01:58;;;;;;;56.55;25.88;;;;;;;1.08;75.27;101587.83;1788217;78;21397;-83
2020/12/27 02:04:45;;;;;;;36.15;21.20;;;;;;;1.08;75.45;101586.09;1786877;78;21096;-83
2020/12/27 02:07:13;;;;;;;31.02;18.37;;;;;;;1.11;75.38;101594.25;1788393;78;20919;-82
2020/12/27 02:09:43;;;;;;;29.45;16.93;;;;;;;1.13;75.27;101587.36;1786546;78;21025;-83
2020/12/27 02:12:13;;;;;;;23.45;16.02;;;;;;;1.13;75.25;101596.40;1789176;78;20954;-82
2020/12/27 02:14:43;;;;;;;25.75;16.57;;;;;;;1.12;75.42;101601.16;1788784;77;21751;-82
2020/12/27 02:17:12;;;;;;;29.48;18.23;;;;;;;1.11;75.41;101614.52;1820226;78;20946;-84
2020/12/27 02:19:42;;;;;;;31.48;18.37;;;;;;;1.10;75.44;101617.95;1785055;78;20935;-84
2020/12/27 02:22:11;;;;;;;26.35;16.70;;;;;;;1.09;75.41;101622.70;1787026;77;21381;-84
2020/12/27 02:24:42;;;;;;;23.05;13.13;;;;;;;1.09;75.32;101624.40;1784403;78;20943;-83
2020/12/27 02:27:11;;;;;;;22.17;12.78;;;;;;;1.04;75.35;101625.71;1789447;78;21797;-80
2020/12/27 02:29:40;;;;;;;26.52;14.60;;;;;;;0.95;75.68;101629.63;1788509;78;21034;-83
2020/12/27 02:32:08;;;;;;;21.95;13.88;;;;;;;0.90;75.95;101630.94;1787549;78;21001;-82
2020/12/27 02:34:37;;;;;;;23.30;13.08;;;;;;;0.89;76.16;101630.94;1791479;78;21025;-81
2020/12/27 02:37:05;;;;;;;20.17;12.80;;;;;;;0.91;76.21;101634.38;1791505;78;20943;-82
2020/12/27 02:39:50;;;;;;;19.05;12.37;;;;;;;0.95;76.18;101633.50;1788537;78;21918;-82
2020/12/27 02:42:19;;;;;;;21.93;14.58;;;;;;;0.98;76.16;101635.66;1789119;78;20954;-84
2020/12/27 02:47:49;;;;;;;21.95;14.35;;;;;;;1.02;76.33;101642.94;1789130;78;20950;-81
2020/12/27 02:50:22;;;;;;;25.30;16.02;;;;;;;1.06;76.20;101638.19;1787982;78;20946;-84
2020/12/27 02:52:51;;;;;;;21.62;13.68;;;;;;;1.08;76.11;101640.78;1788103;78;20979;-85
2020/12/27 02:55:19;;;;;;;23.15;13.60;;;;;;;1.13;76.02;101646.77;1788233;78;20966;-84
2020/12/27 02:57:52;;;;;;;20.60;13.50;;;;;;;1.14;75.97;101652.38;1788038;78;20915;-82
2020/12/27 03:00:21;;;;;;;20.02;13.50;;;;;;;1.12;76.01;101659.27;1788117;78;20914;-82
2020/12/27 03:02:54;;;;;;;22.42;14.53;;;;;;;1.12;76.12;101669.17;1784219;78;21029;-81
2020/12/27 03:05:24;;;;;;;18.67;13.55;;;;;;;1.14;76.15;101668.73;1785840;78;21480;-80
2020/12/27 03:07:52;;;;;;;22.80;11.75;;;;;;;1.16;76.10;101665.72;1786211;78;20910;-81
2020/12/27 03:10:22;;;;;;;17.07;11.93;;;;;;;1.20;76.04;101671.30;1786146;78;20938;-82
2020/12/27 03:12:52;;;;;;;16.52;11.40;;;;;;;1.24;75.99;101682.05;1786828;78;20899;-83
2020/12/27 03:15:21;;;;;;;20.12;12.60;;;;;;;1.23;76.00;101674.30;1786389;78;20931;-81
2020/12/27 03:18:08;;;;;;;21.93;14.25;;;;;;;1.21;76.10;101675.59;1787623;78;20981;-81
2020/12/27 03:20:50;;;;;;;25.20;13.25;;;;;;;1.24;76.15;101683.34;1754966;80;20965;-82
2020/12/27 03:23:19;;;;;;;26.97;15.08;;;;;;;1.26;76.06;101686.34;1755222;80;20950;-80
2020/12/27 03:26:03;;;;;;;21.90;14.33;;;;;;;1.33;75.94;101678.54;1846042;76;22678;-81
2020/12/27 03:28:32;;;;;;;23.60;14.55;;;;;;;1.30;75.90;101693.22;1786651;79;21343;-85
2020/12/27 03:31:02;;;;;;;23.27;15.23;;;;;;;1.27;75.96;101693.20;1786105;79;20982;-84
2020/12/27 03:33:32;;;;;;;27.37;13.80;;;;;;;1.27;76.05;101706.12;1786198;79;21038;-85
2020/12/27 03:36:02;;;;;;;23.07;14.15;;;;;;;1.27;76.00;101707.42;1786371;79;20998;-85
2020/12/27 03:38:32;;;;;;;24.85;15.65;;;;;;;1.27;75.94;101718.64;1785149;79;20951;-84
2020/12/27 03:41:14;;;;;;;23.12;14.85;;;;;;;1.28;75.97;101729.83;1766674;79;20942;-84
2020/12/27 03:43:45;;;;;;;19.77;12.73;;;;;;;1.30;76.06;101725.52;1785187;79;21013;-83
2020/12/27 03:46:15;;;;;;;19.07;12.18;;;;;;;1.31;76.18;101721.64;1786386;79;21488;-82
2020/12/27 03:48:51;;;;;;;18.60;12.13;;;;;;;1.32;76.16;101718.62;1784143;79;20946;-83
2020/12/27 03:51:37;;;;;;;22.02;12.07;;;;;;;1.27;76.20;101713.88;1786135;79;20954;-87
2020/12/27 03:54:06;;;;;;;19.75;12.88;;;;;;;1.21;76.37;101713.05;1760897;79;20938;-86
2020/12/27 03:56:39;;;;;;;24.27;12.35;;;;;;;1.18;76.46;101727.28;1772053;77;21025;-83
2020/12/27 03:59:09;;;;;;;19.48;11.15;;;;;;;1.17;76.70;101737.17;1782422;79;20966;-86
2020/12/27 04:01:38;;;;;;;15.88;10.45;;;;;;;1.21;76.81;101736.73;1787748;78;20938;-83
2020/12/27 04:04:07;;;;;;;14.45;10.72;;;;;;;1.21;76.83;101739.33;1790104;78;20899;-84
2020/12/27 04:06:36;;;;;;;16.50;11.30;;;;;;;1.21;76.88;101742.76;1789522;77;21021;-84
2020/12/27 04:09:19;;;;;;;18.77;12.40;;;;;;;1.23;76.81;101742.77;1722862;82;21183;-83
2020/12/27 04:11:48;;;;;;;20.68;12.07;;;;;;;1.19;76.82;101747.51;1746856;82;21392;-83
2020/12/27 04:14:16;;;;;;;16.85;12.07;;;;;;;1.17;76.97;101752.67;1746362;82;20963;-82
2020/12/27 04:16:59;;;;;;;18.92;12.50;;;;;;;1.24;76.93;101757.39;1890351;76;21829;-82
2020/12/27 04:19:27;;;;;;;20.10;13.22;;;;;;;1.19;77.10;101756.55;1827771;77;20989;-83
2020/12/27 04:22:00;;;;;;;20.48;11.53;;;;;;;1.18;77.16;101763.89;1789861;78;21953;-85
2020/12/27 04:24:33;;;;;;;20.68;12.50;;;;;;;1.20;77.26;101763.42;1790034;78;21369;-84
2020/12/27 04:27:01;;;;;;;17.30;11.55;;;;;;;1.22;77.05;101772.91;1765345;78;20947;-84
2020/12/27 04:29:30;;;;;;;15.60;10.88;;;;;;;1.21;76.89;101777.64;1765335;78;20917;-84
2020/12/27 04:31:57;;;;;;;18.82;11.22;;;;;;;1.20;76.87;101781.09;1791193;78;20999;-86
2020/12/27 04:34:37;;;;;;;15.80;11.30;;;;;;;1.13;76.93;101777.22;1770368;78;22603;-85
2020/12/27 04:37:07;;;;;;;19.32;11.55;;;;;;;1.05;77.15;101785.00;1788186;78;21580;-84
2020/12/27 04:39:37;;;;;;;19.82;12.53;;;;;;;1.05;77.33;101785.45;1790597;78;21003;-85
2020/12/27 04:42:05;;;;;;;19.55;12.05;;;;;;;1.07;77.17;101788.45;1765407;78;21055;-84
2020/12/27 04:44:36;;;;;;;18.82;12.58;;;;;;;1.09;76.92;101794.88;1790055;78;21070;-84
2020/12/27 04:47:06;;;;;;;17.42;11.53;;;;;;;1.08;76.86;101794.47;1790680;78;22200;-84
2020/12/27 04:49:36;;;;;;;16.93;11.60;;;;;;;1.06;76.97;101797.05;1790254;78;21008;-83
2020/12/27 04:52:06;;;;;;;15.30;10.88;;;;;;;1.05;76.96;101797.92;1790987;78;21412;-85
2020/12/27 04:54:51;;;;;;;16.57;11.63;;;;;;;1.07;76.84;101792.73;1846279;76;22363;-84
2020/12/27 04:57:23;;;;;;;20.80;14.13;;;;;;;1.00;76.94;101790.59;1786655;79;20954;-84
2020/12/27 04:59:52;;;;;;;15.85;10.82;;;;;;;0.99;76.78;101804.38;1787383;79;20954;-85
2020/12/27 05:02:21;;;;;;;18.05;11.40;;;;;;;0.98;76.63;101803.53;1787806;79;21007;-82
2020/12/27 05:04:52;;;;;;;16.48;10.48;;;;;;;0.92;76.58;101811.27;1789639;79;20998;-81
2020/12/27 05:07:24;;;;;;;21.25;13.05;;;;;;;0.83;76.77;101806.97;1789416;77;21057;-79
2020/12/27 05:10:11;;;;;;;19.92;13.62;;;;;;;0.79;76.96;101806.54;1787350;79;20934;-79
2020/12/27 05:12:41;;;;;;;28.75;17.12;;;;;;;0.77;76.94;101811.28;1787200;79;21863;-82
2020/12/27 05:15:10;;;;;;;28.92;20.02;;;;;;;0.75;77.02;101830.63;1786580;79;21006;-81
2020/12/27 05:17:40;;;;;;;36.40;21.90;;;;;;;0.71;76.91;101835.80;1786509;79;20931;-82
2020/12/27 05:20:14;;;;;;;35.55;21.40;;;;;;;0.65;76.85;101836.67;1786515;79;21018;-84
2020/12/27 05:22:42;;;;;;;37.20;22.20;;;;;;;0.59;76.92;101845.69;1786475;79;20923;-81
2020/12/27 05:25:14;;;;;;;37.85;20.40;;;;;;;0.52;76.81;101843.53;1786247;79;22410;-81
2020/12/27 05:28:06;;;;;;;38.17;21.85;;;;;;;0.46;76.81;101852.98;1772947;79;21589;-84
2020/12/27 05:30:36;;;;;;;35.75;20.02;;;;;;;0.41;76.84;101866.73;1782394;79;20939;-83
2020/12/27 05:33:23;;;;;;;23.12;15.30;;;;;;;0.35;76.92;101869.30;1786130;79;20998;-84
2020/12/27 05:36:02;;;;;;;43.92;25.65;;;;;;;0.28;77.23;101871.87;1786261;79;21317;-83
2020/12/27 05:38:32;;;;;;;43.23;23.27;;;;;;;0.23;77.63;101871.86;1786301;77;22173;-85
2020/12/27 05:41:05;;;;;;;29.12;19.02;;;;;;;0.22;77.67;101873.13;1786739;79;20942;-84
2020/12/27 05:43:37;;;;;;;26.82;16.35;;;;;;;0.23;77.76;101886.05;1786051;79;20923;-84
2020/12/27 05:46:07;;;;;;;27.37;15.40;;;;;;;0.21;77.93;101883.89;1786113;79;21061;-82
2020/12/27 05:48:35;;;;;;;36.85;23.67;;;;;;;0.18;78.14;101889.05;1786229;79;20899;-83
2020/12/27 05:51:04;;;;;;;35.78;23.22;;;;;;;0.14;77.77;101885.59;1786138;79;22173;-82
2020/12/27 05:53:34;;;;;;;38.25;21.50;;;;;;;0.09;77.56;101896.73;1785955;79;20923;-83
2020/12/27 05:56:04;;;;;;;40.60;21.40;;;;;;;0.07;77.50;101905.77;1761592;79;20939;-82
2020/12/27 05:58:34;;;;;;;32.48;20.60;;;;;;;0.04;77.36;101916.05;1785638;79;21020;-83
2020/12/27 06:01:07;;;;;;;33.75;19.42;;;;;;;-0.03;77.48;101913.88;1786413;79;21049;-84
2020/12/27 06:03:40;;;;;;;34.73;18.80;;;;;;;-0.06;77.65;101918.17;1761368;79;21479;-82
2020/12/27 06:06:08;;;;;;;32.05;18.82;;;;;;;-0.07;77.85;101919.01;1761083;79;21014;-84
2020/12/27 06:09:04;;;;;;;28.15;17.23;;;;;;;-0.05;78.06;101923.31;1759535;79;21023;-81
2020/12/27 06:11:53;;;;;;;27.42;15.55;;;;;;;-0.05;78.23;101919.88;1785621;79;20977;-82
2020/12/27 06:14:42;;;;;;;37.53;19.12;;;;;;;-0.07;78.48;101925.05;1785673;79;20951;-78
2020/12/27 06:17:49;;;;;;;34.73;18.98;;;;;;;-0.06;78.34;101923.33;1785553;79;21163;-79
2020/12/27 06:20:22;;;;;;;34.67;17.17;;;;;;;-0.07;78.08;101924.16;1785566;79;20918;-80
2020/12/27 06:22:51;;;;;;;42.00;25.72;;;;;;;-0.06;78.20;101929.77;1785889;79;20927;-79
2020/12/27 06:25:21;;;;;;;37.78;21.30;;;;;;;-0.07;78.54;101931.91;1785392;79;20981;-79
2020/12/27 06:27:50;;;;;;;42.00;24.45;;;;;;;-0.06;78.69;101934.94;1760550;79;21461;-79
2020/12/27 06:30:23;;;;;;;39.03;22.45;;;;;;;-0.02;78.54;101944.41;1785510;79;21228;-79
2020/12/27 06:33:15;;;;;;;42.30;23.95;;;;;;;-0.01;78.24;101950.84;1783000;79;20998;-80
2020/12/27 06:35:46;;;;;;;28.38;17.57;;;;;;;-0.02;78.17;101958.16;1785490;79;20954;-80
2020/12/27 06:38:21;;;;;;;31.68;20.25;;;;;;;-0.03;78.37;101959.00;1785807;79;20935;-84
2020/12/27 06:41:05;;;;;;;29.18;19.00;;;;;;;-0.01;78.47;101968.89;1785315;79;20935;-82
2020/12/27 06:43:42;;;;;;;38.15;21.80;;;;;;;0.04;78.52;101966.77;1785452;79;21436;-82
2020/12/27 06:46:28;;;;;;;42.35;24.67;;;;;;;0.05;78.44;101972.38;1785444;79;20974;-83
2020/12/27 06:49:15;;;;;;;42.45;23.90;;;;;;;0.05;78.32;101977.11;1785055;79;20990;-83
2020/12/27 06:52:23;;;;;;;42.65;24.32;;;;;;;0.15;78.28;101981.44;1890258;76;22691;-82
2020/12/27 06:55:10;;;;;;;42.40;25.37;;;;;;;0.13;77.99;101983.14;1827655;77;21001;-85
2020/12/27 06:57:48;;;;;;;44.93;23.40;;;;;;;0.15;78.12;101980.58;1825612;77;20952;-82
2020/12/27 07:00:29;;;;;;;39.98;23.73;;;;;;;0.18;78.07;101981.47;1789757;78;21003;-82
2020/12/27 07:03:12;;;;;;;35.30;20.95;;;;;;;0.23;78.15;101988.38;1747565;80;21053;-80
2020/12/27 07:05:40;;;;;;;39.58;21.35;;;;;;;0.30;78.04;101992.27;1792632;78;21006;-85
2020/12/27 07:08:11;;;;;;;37.58;21.80;;;;;;;0.36;77.96;101996.61;1793896;78;21373;-83
2020/12/27 07:10:49;;;;;;;30.35;20.23;;;;;;;0.39;77.96;101996.17;1793955;78;21529;-85
2020/12/27 07:13:18;;;;;;;36.10;21.80;;;;;;;0.41;77.97;101995.75;1787200;78;21495;-83
2020/12/27 07:15:55;;;;;;;37.98;23.25;;;;;;;0.46;77.96;101999.64;1792320;78;21051;-82
2020/12/27 07:18:27;;;;;;;29.92;18.48;;;;;;;0.53;77.90;102003.11;1791885;78;21043;-85
2020/12/27 07:20:57;;;;;;;30.12;19.50;;;;;;;0.60;77.70;102011.30;1791366;78;21079;-83
2020/12/27 07:23:28;;;;;;;35.45;21.35;;;;;;;0.64;77.74;102005.30;1791007;78;21027;-83
2020/12/27 07:26:00;;;;;;;31.15;19.32;;;;;;;0.70;77.71;102003.18;1791564;78;21035;-83
2020/12/27 07:28:29;;;;;;;29.00;17.85;;;;;;;0.74;77.70;102008.80;1791235;78;21160;-83
2020/12/27 07:31:05;;;;;;;23.83;15.10;;;;;;;0.79;77.55;102008.38;1791162;78;21436;-83
2020/12/27 07:33:36;;;;;;;24.50;15.13;;;;;;;0.83;77.30;102016.56;1791194;78;20956;-84
2020/12/27 07:36:10;;;;;;;22.37;12.85;;;;;;;0.87;77.08;102025.16;1791673;78;21011;-84
2020/12/27 07:39:00;;;;;;;25.15;15.28;;;;;;;0.85;76.96;102024.33;1793248;77;21015;-85
2020/12/27 07:41:40;;;;;;;31.95;15.78;;;;;;;0.79;77.00;102019.98;1794906;78;21075;-81
2020/12/27 07:44:14;;;;;;;26.90;14.07;;;;;;;0.73;77.13;102022.55;1793252;78;21456;-82
2020/12/27 07:46:43;;;;;;;21.10;14.13;;;;;;;0.75;77.49;102033.73;1792949;78;21094;-79
2020/12/27 07:49:12;;;;;;;22.48;14.47;;;;;;;0.75;77.49;102033.73;1791915;78;21655;-81
2020/12/27 07:51:41;;;;;;;18.82;13.65;;;;;;;0.81;77.34;102033.77;1791326;78;20940;-80
2020/12/27 07:54:12;;;;;;;25.80;15.50;;;;;;;0.85;77.35;102036.80;1791411;78;20999;-81
2020/12/27 07:56:42;;;;;;;24.23;15.65;;;;;;;0.89;77.55;102041.13;1791222;78;21477;-81
2020/12/27 07:59:10;;;;;;;25.00;14.30;;;;;;;0.95;77.34;102042.84;1791198;78;20948;-79
2020/12/27 08:01:39;;;;;;;23.57;15.50;;;;;;;1.00;77.39;102047.17;1791154;78;21892;-81
2020/12/27 08:04:07;;;;;;;19.48;13.85;;;;;;;1.05;77.18;102047.19;1790756;78;20996;-82
2020/12/27 08:06:37;;;;;;;22.67;13.60;;;;;;;1.09;76.81;102054.09;1790834;78;21156;-82
2020/12/27 08:09:12;;;;;;;23.15;13.95;;;;;;;1.12;76.69;102062.27;1791411;78;20999;-86
2020/12/27 08:11:43;;;;;;;19.30;12.40;;;;;;;1.14;76.72;102075.62;1791659;78;21449;-81
2020/12/27 08:14:12;;;;;;;18.85;12.73;;;;;;;1.14;76.55;102073.47;1791238;78;22130;-83
2020/12/27 08:16:42;;;;;;;19.80;12.80;;;;;;;1.13;76.50;102076.90;1790954;78;21513;-81
2020/12/27 08:19:13;;;;;;;24.43;15.18;;;;;;;1.12;76.41;102070.87;1790603;78;20948;-80
2020/12/27 08:21:45;;;;;;;22.93;15.32;;;;;;;1.16;76.43;102079.51;1791081;78;20948;-83
2020/12/27 08:24:16;;;;;;;23.12;15.30;;;;;;;1.21;76.41;102076.06;1792412;78;20952;-89
2020/12/27 08:26:47;;;;;;;17.57;12.85;;;;;;;1.22;76.38;102072.64;1792432;78;22561;-91
2020/12/27 08:29:25;;;;;;;19.52;13.55;;;;;;;1.20;76.09;102072.17;1791167;78;21588;-89
2020/12/27 08:32:02;;;;;;;17.30;12.80;;;;;;;1.13;76.10;102071.30;1791036;78;20936;-88
2020/12/27 08:34:32;;;;;;;25.80;14.55;;;;;;;1.08;76.32;102080.77;1790700;78;21513;-85
2020/12/27 08:37:00;;;;;;;18.02;13.68;;;;;;;1.12;76.38;102090.25;1790885;78;21007;-86
2020/12/27 08:39:51;;;;;;;20.02;14.68;;;;;;;1.22;76.35;102083.38;1791013;78;21399;-85
2020/12/27 08:42:40;;;;;;;17.12;12.33;;;;;;;1.26;76.27;102084.26;1790915;78;20921;-88
2020/12/27 08:45:20;;;;;;;18.35;13.62;;;;;;;1.32;76.20;102082.55;1790961;78;21003;-88
2020/12/27 08:48:14;;;;;;;19.75;14.28;;;;;;;1.40;75.88;102085.13;1789681;78;20909;-88
2020/12/27 08:50:46;;;;;;;22.60;13.85;;;;;;;1.46;75.58;102083.86;1790916;78;25032;-88
2020/12/27 08:53:16;;;;;;;17.45;12.75;;;;;;;1.52;75.24;102083.02;1791039;78;21078;-88
2020/12/27 08:55:51;;;;;;;21.60;13.53;;;;;;;1.52;74.99;102082.58;1822302;78;21055;-87
2020/12/27 08:58:22;;;;;;;17.95;12.98;;;;;;;1.47;75.20;102085.59;1822689;78;20936;-86
2020/12/27 09:04:02;;;;;;;21.65;14.35;;;;;;;1.56;75.52;102077.84;1805689;77;22287;-84
2020/12/27 09:06:38;;;;;;;19.57;13.25;;;;;;;1.59;75.23;102078.28;1711752;81;21071;-87
2020/12/27 09:09:11;;;;;;;18.73;12.88;;;;;;;1.64;75.02;102079.12;1776061;79;21279;-85
2020/12/27 09:11:47;;;;;;;21.65;14.47;;;;;;;1.71;74.77;102085.17;1743091;82;21405;-76
2020/12/27 09:14:32;;;;;;;19.37;13.70;;;;;;;1.75;74.78;102086.90;1741926;81;21369;-86
2020/12/27 09:17:06;;;;;;;18.82;13.40;;;;;;;1.73;74.78;102077.84;1666106;85;20968;-83
2020/12/27 09:19:35;;;;;;;18.65;14.23;;;;;;;1.75;74.72;102079.14;1689341;83;21066;-88
2020/12/27 09:22:10;;;;;;;38.20;24.45;;;;;;;1.76;74.61;102088.20;1665729;85;21086;-88
2020/12/27 09:25:20;;;;;;;25.80;16.57;;;;;;;1.76;74.61;102089.50;1687986;84;20971;-91
2020/12/27 09:38:27;;;;;;;20.15;13.98;;;;;;;1.88;74.50;102076.98;1842113;76;22425;-77
2020/12/27 09:41:07;;;;;;;21.65;14.15;;;;;;;1.88;74.38;102082.16;1812070;78;21442;-76
2020/12/27 09:44:02;;;;;;;19.55;13.35;;;;;;;1.98;74.17;102068.77;1874664;75;22757;-79
2020/12/27 09:46:51;;;;;;;17.02;12.75;;;;;;;1.93;74.11;102064.90;1788089;78;20939;-78
2020/12/27 09:49:31;;;;;;;21.10;13.38;;;;;;;1.93;74.03;102064.90;1819933;78;21320;-76
2020/12/27 09:52:15;;;;;;;20.15;14.63;;;;;;;1.92;73.85;102075.27;1788086;78;20939;-76
2020/12/27 09:54:45;;;;;;;22.35;14.83;;;;;;;1.90;73.85;102071.82;1788059;78;21041;-78
2020/12/27 09:57:24;;;;;;;19.42;13.15;;;;;;;1.86;73.90;102070.51;1786541;78;20928;-75
2020/12/27 09:59:55;;;;;;;19.10;13.80;;;;;;;1.87;73.79;102068.81;1762840;78;20954;-76
2020/12/27 10:02:24;;;;;;;17.60;12.47;;;;;;;1.88;73.50;102070.95;1787021;78;21341;-79
2020/12/27 10:04:52;;;;;;;21.95;13.85;;;;;;;1.90;73.38;102080.87;1788022;78;20982;-76
2020/12/27 10:07:20;;;;;;;22.95;14.20;;;;;;;1.92;73.05;102080.45;1788061;78;20895;-77
2020/12/27 10:09:48;;;;;;;19.15;14.53;;;;;;;1.91;73.02;102077.41;1786703;78;20965;-78
2020/12/27 10:12:16;;;;;;;21.33;14.33;;;;;;;1.90;72.89;102080.87;1788128;78;21407;-75
2020/12/27 10:14:45;;;;;;;21.35;14.20;;;;;;;1.89;73.00;102081.72;1787932;78;21053;-79
2020/12/27 10:17:14;;;;;;;22.32;14.83;;;;;;;1.89;73.02;102075.25;1786554;78;20954;-78
2020/12/27 10:19:42;;;;;;;20.77;13.70;;;;;;;1.91;72.91;102068.36;1787920;78;20939;-75
2020/12/27 10:22:10;;;;;;;25.23;14.75;;;;;;;1.92;72.62;102070.95;1788473;78;21503;-76
2020/12/27 10:24:40;;;;;;;20.15;13.83;;;;;;;1.90;72.60;102069.23;1820350;78;20982;-77
2020/12/27 10:27:08;;;;;;;17.90;13.75;;;;;;;1.90;72.58;102065.35;1787972;78;21486;-79
2020/12/27 10:29:36;;;;;;;16.50;13.35;;;;;;;1.89;72.48;102059.33;1787918;78;21129;-78
2020/12/27 10:32:06;;;;;;;20.02;14.55;;;;;;;1.90;72.19;102064.06;1788205;78;21030;-75
2020/12/27 10:34:38;;;;;;;23.73;14.55;;;;;;;1.91;72.09;102061.45;1788161;78;21369;-77
2020/12/27 10:37:07;;;;;;;18.82;14.10;;;;;;;1.94;72.00;102059.32;1787987;78;20903;-76
2020/12/27 10:39:35;;;;;;;16.75;12.68;;;;;;;1.96;71.80;102062.33;1788058;78;21150;-76
2020/12/27 10:42:03;;;;;;;20.57;14.28;;;;;;;1.99;71.77;102060.17;1786491;77;20955;-80
2020/12/27 10:44:32;;;;;;;18.25;12.05;;;;;;;2.04;71.54;102057.98;1785308;79;20955;-80
2020/12/27 10:47:01;;;;;;;16.62;12.90;;;;;;;2.09;71.30;102060.59;1785332;79;20935;-80
2020/12/27 10:49:29;;;;;;;17.55;13.40;;;;;;;2.11;71.02;102060.13;1785211;79;21401;-79
2020/12/27 10:51:58;;;;;;;17.62;13.10;;;;;;;2.11;70.93;102061.42;1783958;79;20984;-81
2020/12/27 10:54:27;;;;;;;18.27;13.43;;;;;;;2.12;71.02;102060.58;1784845;79;21603;-80
2020/12/27 10:56:55;;;;;;;17.60;11.73;;;;;;;2.12;70.86;102056.70;1784835;79;21788;-79
2020/12/27 10:59:26;;;;;;;18.90;12.10;;;;;;;2.17;70.63;102058.83;1784386;79;20911;-78
2020/12/27 11:01:55;;;;;;;21.27;14.33;;;;;;;2.21;70.63;102059.70;1784658;77;20943;-80
2020/12/27 11:04:25;;;;;;;18.27;14.30;;;;;;;2.25;70.69;102057.55;1783177;79;20993;-79
2020/12/27 11:06:53;;;;;;;17.85;13.05;;;;;;;2.28;70.61;102062.70;1784725;79;20935;-79
2020/12/27 11:09:22;;;;;;;17.52;13.93;;;;;;;2.32;70.59;102072.19;1784601;79;20943;-79
2020/12/27 11:11:54;;;;;;;21.75;11.93;;;;;;;2.32;70.06;102076.06;1784598;79;20915;-82
2020/12/27 11:16:40;;;;;;;16.50;12.90;;;;;;;2.37;70.04;102076.91;1777627;79;22692;-80
2020/12/27 11:19:42;;;;;;;17.55;13.38;;;;;;;2.40;69.79;102082.50;1887357;75;23299;-80
2020/12/27 11:22:11;;;;;;;20.25;11.90;;;;;;;2.36;69.86;102089.44;1822348;77;20982;-82
2020/12/27 11:24:39;;;;;;;20.15;12.63;;;;;;;2.38;69.58;102090.70;1756349;79;22930;-78
2020/12/27 11:27:07;;;;;;;17.85;13.03;;;;;;;2.40;69.42;102086.39;1796163;78;20954;-80
2020/12/27 11:29:35;;;;;;;16.80;12.25;;;;;;;2.43;69.21;102084.66;1760462;80;20946;-78
2020/12/27 11:32:03;;;;;;;18.00;12.35;;;;;;;2.45;68.99;102088.12;1764775;78;21064;-80
2020/12/27 11:34:33;;;;;;;21.80;12.68;;;;;;;2.47;68.86;102096.74;1811069;78;21041;-81
2020/12/27 11:37:01;;;;;;;16.50;11.30;;;;;;;2.48;68.79;102091.98;1741772;81;21182;-81
2020/12/27 11:39:29;;;;;;;15.40;11.88;;;;;;;2.50;68.86;102084.22;1756012;79;21642;-84
2020/12/27 11:41:57;;;;;;;18.42;11.95;;;;;;;2.51;68.63;102072.98;1762240;80;21191;-82
2020/12/27 11:44:26;;;;;;;17.02;12.07;;;;;;;2.52;68.80;102077.31;1791047;78;21140;-79
2020/12/27 11:46:54;;;;;;;16.82;11.85;;;;;;;2.53;68.29;102081.61;1738626;81;21005;-78
2020/12/27 11:49:23;;;;;;;17.87;12.28;;;;;;;2.52;68.03;102087.66;1777272;78;21643;-80
2020/12/27 11:51:54;;;;;;;16.32;11.78;;;;;;;2.52;67.90;102082.93;1781288;78;21017;-81
2020/12/27 11:54:22;;;;;;;14.73;12.15;;;;;;;2.51;67.97;102080.75;1777931;78;21057;-81
2020/12/27 11:56:58;;;;;;;16.10;12.15;;;;;;;2.53;67.97;102082.05;1753104;79;21039;-81
2020/12/27 11:59:26;;;;;;;18.60;12.78;;;;;;;2.50;68.34;102085.52;1779555;78;20946;-81
2020/12/27 12:01:54;;;;;;;14.18;10.82;;;;;;;2.48;68.54;102084.66;1739903;81;21715;-80